sensor_id;sensor_type;location;lat;lon;timestamp;P1;durP1;ratioP1;P2;durP2;ratioP2
23747;SDS011;12054;53.662;10.126;2022-09-09T00:07:27;77.43;;;25.52;;
23747;SDS011;12054;53.662;10.126;2022-09-09T00:15:20;79.90;;;24.92;;
23747;SDS011;12054;53.662;10.126;2022-09-09T00:31:32;104.45;;;26.33;;
23747;SDS011;12054;53.662;10.126;2022-09-09T00:33:58;91.22;;;27.13;;
23747;SDS011;12054;53.662;10.126;2022-09-09T00:36:38;85.05;;;27.10;;
23747;SDS011;12054;53.662;10.126;2022-09-09T00:39:08;78.03;;;25.67;;
23747;SDS011;12054;53.662;10.126;2022-09-09T00:44:37;87.50;;;25.67;;
23747;SDS011;12054;53.662;10.126;2022-09-09T00:50:15;93.43;;;25.17;;
23747;SDS011;12054;53.662;10.126;2022-09-09T00:55:34;94.47;;;23.48;;
23747;SDS011;12054;53.662;10.126;2022-09-09T00:58:13;65.18;;;22.50;;
23747;SDS011;12054;53.662;10.126;2022-09-09T01:06:22;78.88;;;20.40;;
23747;SDS011;12054;53.662;10.126;2022-09-09T01:17:00;55.50;;;21.60;;
23747;SDS011;12054;53.662;10.126;2022-09-09T01:22:33;40.28;;;20.50;;
23747;SDS011;12054;53.662;10.126;2022-09-09T01:28:16;43.67;;;19.92;;
23747;SDS011;12054;53.662;10.126;2022-09-09T01:30:46;34.92;;;17.83;;
23747;SDS011;12054;53.662;10.126;2022-09-09T01:33:16;36.15;;;18.45;;
23747;SDS011;12054;53.662;10.126;2022-09-09T01:35:45;35.65;;;18.13;;
23747;SDS011;12054;53.662;10.126;2022-09-09T01:38:21;31.02;;;17.85;;
23747;SDS011;12054;53.662;10.126;2022-09-09T01:40:48;34.60;;;17.95;;
23747;SDS011;12054;53.662;10.126;2022-09-09T01:43:17;30.55;;;17.10;;
23747;SDS011;12054;53.662;10.126;2022-09-09T01:45:46;34.13;;;17.77;;
23747;SDS011;12054;53.662;10.126;2022-09-09T01:48:14;28.98;;;16.65;;
23747;SDS011;12054;53.662;10.126;2022-09-09T01:50:40;35.13;;;17.15;;
23747;SDS011;12054;53.662;10.126;2022-09-09T01:53:06;31.75;;;17.42;;
23747;SDS011;12054;53.662;10.126;2022-09-09T01:55:40;31.83;;;17.70;;
23747;SDS011;12054;53.662;10.126;2022-09-09T01:58:22;31.65;;;17.65;;
23747;SDS011;12054;53.662;10.126;2022-09-09T02:01:17;34.33;;;17.88;;
23747;SDS011;12054;53.662;10.126;2022-09-09T02:03:51;36.95;;;17.90;;
23747;SDS011;12054;53.662;10.126;2022-09-09T02:08:56;31.92;;;16.90;;
23747;SDS011;12054;53.662;10.126;2022-09-09T02:11:26;34.45;;;18.40;;
23747;SDS011;12054;53.662;10.126;2022-09-09T02:13:59;34.50;;;18.65;;
23747;SDS011;12054;53.662;10.126;2022-09-09T02:16:29;33.33;;;17.25;;
23747;SDS011;12054;53.662;10.126;2022-09-09T02:21:53;35.63;;;18.10;;
23747;SDS011;12054;53.662;10.126;2022-09-09T02:24:20;48.10;;;18.02;;
23747;SDS011;12054;53.662;10.126;2022-09-09T02:26:48;41.75;;;18.65;;
23747;SDS011;12054;53.662;10.126;2022-09-09T02:29:19;49.75;;;18.92;;
23747;SDS011;12054;53.662;10.126;2022-09-09T02:31:47;46.28;;;18.25;;
23747;SDS011;12054;53.662;10.126;2022-09-09T02:34:16;47.72;;;18.35;;
23747;SDS011;12054;53.662;10.126;2022-09-09T02:36:46;41.88;;;18.35;;
23747;SDS011;12054;53.662;10.126;2022-09-09T02:39:13;37.72;;;18.40;;
23747;SDS011;12054;53.662;10.126;2022-09-09T02:41:40;48.50;;;17.33;;
23747;SDS011;12054;53.662;10.126;2022-09-09T02:44:10;33.20;;;19.27;;
23747;SDS011;12054;53.662;10.126;2022-09-09T02:51:40;40.05;;;19.20;;
23747;SDS011;12054;53.662;10.126;2022-09-09T02:56:55;38.45;;;17.13;;
23747;SDS011;12054;53.662;10.126;2022-09-09T02:59:27;36.80;;;18.60;;
23747;SDS011;12054;53.662;10.126;2022-09-09T03:01:54;35.83;;;18.63;;
23747;SDS011;12054;53.662;10.126;2022-09-09T03:04:19;34.97;;;17.73;;
23747;SDS011;12054;53.662;10.126;2022-09-09T03:06:45;37.38;;;17.13;;
23747;SDS011;12054;53.662;10.126;2022-09-09T03:09:11;33.53;;;18.42;;
23747;SDS011;12054;53.662;10.126;2022-09-09T03:11:36;28.60;;;17.85;;
23747;SDS011;12054;53.662;10.126;2022-09-09T03:14:03;36.28;;;17.65;;
23747;SDS011;12054;53.662;10.126;2022-09-09T03:16:29;30.75;;;17.77;;
23747;SDS011;12054;53.662;10.126;2022-09-09T03:18:55;27.65;;;16.55;;
23747;SDS011;12054;53.662;10.126;2022-09-09T03:21:20;28.85;;;16.42;;
23747;SDS011;12054;53.662;10.126;2022-09-09T03:23:46;31.38;;;18.92;;
23747;SDS011;12054;53.662;10.126;2022-09-09T03:26:13;27.90;;;16.90;;
23747;SDS011;12054;53.662;10.126;2022-09-09T03:28:40;31.35;;;17.15;;
23747;SDS011;12054;53.662;10.126;2022-09-09T03:31:07;29.27;;;17.55;;
23747;SDS011;12054;53.662;10.126;2022-09-09T03:33:35;29.77;;;17.58;;
23747;SDS011;12054;53.662;10.126;2022-09-09T03:36:04;28.08;;;17.33;;
23747;SDS011;12054;53.662;10.126;2022-09-09T03:38:30;28.88;;;18.23;;
23747;SDS011;12054;53.662;10.126;2022-09-09T03:40:57;32.17;;;18.33;;
23747;SDS011;12054;53.662;10.126;2022-09-09T03:43:23;30.52;;;18.92;;
23747;SDS011;12054;53.662;10.126;2022-09-09T03:45:50;30.55;;;18.30;;
23747;SDS011;12054;53.662;10.126;2022-09-09T03:48:16;27.73;;;17.00;;
23747;SDS011;12054;53.662;10.126;2022-09-09T03:50:46;25.58;;;16.63;;
23747;SDS011;12054;53.662;10.126;2022-09-09T03:53:15;26.33;;;16.77;;
23747;SDS011;12054;53.662;10.126;2022-09-09T03:55:44;29.85;;;16.95;;
23747;SDS011;12054;53.662;10.126;2022-09-09T03:58:14;29.23;;;18.13;;
23747;SDS011;12054;53.662;10.126;2022-09-09T04:00:40;27.00;;;17.48;;
23747;SDS011;12054;53.662;10.126;2022-09-09T04:03:08;31.10;;;17.73;;
23747;SDS011;12054;53.662;10.126;2022-09-09T04:05:34;27.90;;;16.92;;
23747;SDS011;12054;53.662;10.126;2022-09-09T04:08:04;32.17;;;18.48;;
23747;SDS011;12054;53.662;10.126;2022-09-09T04:10:30;30.05;;;17.85;;
23747;SDS011;12054;53.662;10.126;2022-09-09T04:12:56;29.10;;;18.35;;
23747;SDS011;12054;53.662;10.126;2022-09-09T04:15:21;28.30;;;17.33;;
23747;SDS011;12054;53.662;10.126;2022-09-09T04:17:47;28.77;;;17.23;;
23747;SDS011;12054;53.662;10.126;2022-09-09T04:20:13;29.90;;;18.42;;
23747;SDS011;12054;53.662;10.126;2022-09-09T04:22:38;27.38;;;17.10;;
23747;SDS011;12054;53.662;10.126;2022-09-09T04:25:05;31.58;;;17.23;;
23747;SDS011;12054;53.662;10.126;2022-09-09T04:27:31;26.85;;;17.33;;
23747;SDS011;12054;53.662;10.126;2022-09-09T04:29:57;28.60;;;16.95;;
23747;SDS011;12054;53.662;10.126;2022-09-09T04:32:23;29.38;;;17.30;;
23747;SDS011;12054;53.662;10.126;2022-09-09T04:34:52;31.05;;;18.00;;
23747;SDS011;12054;53.662;10.126;2022-09-09T04:37:19;28.80;;;17.75;;
23747;SDS011;12054;53.662;10.126;2022-09-09T04:39:45;26.55;;;16.23;;
23747;SDS011;12054;53.662;10.126;2022-09-09T04:42:10;24.30;;;15.35;;
23747;SDS011;12054;53.662;10.126;2022-09-09T04:44:36;26.60;;;17.02;;
23747;SDS011;12054;53.662;10.126;2022-09-09T04:47:03;25.75;;;16.85;;
23747;SDS011;12054;53.662;10.126;2022-09-09T04:49:30;26.73;;;16.30;;
23747;SDS011;12054;53.662;10.126;2022-09-09T04:51:56;25.77;;;16.83;;
23747;SDS011;12054;53.662;10.126;2022-09-09T04:54:21;24.85;;;16.50;;
23747;SDS011;12054;53.662;10.126;2022-09-09T04:56:47;24.10;;;15.43;;
23747;SDS011;12054;53.662;10.126;2022-09-09T04:59:15;22.05;;;15.02;;
23747;SDS011;12054;53.662;10.126;2022-09-09T05:01:41;22.75;;;14.85;;
23747;SDS011;12054;53.662;10.126;2022-09-09T05:04:07;22.85;;;14.50;;
23747;SDS011;12054;53.662;10.126;2022-09-09T05:06:33;21.65;;;15.25;;
23747;SDS011;12054;53.662;10.126;2022-09-09T05:09:01;22.85;;;14.30;;
23747;SDS011;12054;53.662;10.126;2022-09-09T05:11:28;20.23;;;13.60;;
23747;SDS011;12054;53.662;10.126;2022-09-09T05:13:55;19.40;;;13.20;;
23747;SDS011;12054;53.662;10.126;2022-09-09T05:16:22;21.63;;;13.85;;
23747;SDS011;12054;53.662;10.126;2022-09-09T05:18:47;22.85;;;13.45;;
23747;SDS011;12054;53.662;10.126;2022-09-09T05:21:15;21.05;;;14.23;;
23747;SDS011;12054;53.662;10.126;2022-09-09T05:23:42;20.58;;;14.15;;
23747;SDS011;12054;53.662;10.126;2022-09-09T05:26:09;19.27;;;13.18;;
23747;SDS011;12054;53.662;10.126;2022-09-09T05:28:38;20.48;;;13.27;;
23747;SDS011;12054;53.662;10.126;2022-09-09T05:31:05;20.17;;;13.48;;
23747;SDS011;12054;53.662;10.126;2022-09-09T05:33:37;20.33;;;13.98;;
23747;SDS011;12054;53.662;10.126;2022-09-09T05:36:06;21.58;;;14.15;;
23747;SDS011;12054;53.662;10.126;2022-09-09T05:38:33;19.02;;;13.57;;
23747;SDS011;12054;53.662;10.126;2022-09-09T05:41:01;20.33;;;13.23;;
23747;SDS011;12054;53.662;10.126;2022-09-09T05:43:27;18.88;;;13.18;;
23747;SDS011;12054;53.662;10.126;2022-09-09T05:46:00;18.50;;;12.52;;
23747;SDS011;12054;53.662;10.126;2022-09-09T05:48:33;19.25;;;13.50;;
23747;SDS011;12054;53.662;10.126;2022-09-09T05:51:00;18.52;;;12.68;;
23747;SDS011;12054;53.662;10.126;2022-09-09T05:53:27;19.30;;;11.73;;
23747;SDS011;12054;53.662;10.126;2022-09-09T05:56:04;19.73;;;12.85;;
23747;SDS011;12054;53.662;10.126;2022-09-09T05:58:37;19.13;;;12.70;;
23747;SDS011;12054;53.662;10.126;2022-09-09T06:03:29;17.75;;;12.18;;
23747;SDS011;12054;53.662;10.126;2022-09-09T06:06:01;21.30;;;12.38;;
23747;SDS011;12054;53.662;10.126;2022-09-09T06:08:35;18.60;;;11.75;;
23747;SDS011;12054;53.662;10.126;2022-09-09T06:11:04;16.77;;;10.80;;
23747;SDS011;12054;53.662;10.126;2022-09-09T06:13:31;17.98;;;11.75;;
23747;SDS011;12054;53.662;10.126;2022-09-09T06:15:57;13.65;;;10.10;;
23747;SDS011;12054;53.662;10.126;2022-09-09T06:18:23;14.70;;;9.55;;
23747;SDS011;12054;53.662;10.126;2022-09-09T06:20:53;15.95;;;10.77;;
23747;SDS011;12054;53.662;10.126;2022-09-09T06:23:22;13.63;;;9.93;;
23747;SDS011;12054;53.662;10.126;2022-09-09T06:25:48;15.02;;;10.25;;
23747;SDS011;12054;53.662;10.126;2022-09-09T06:28:14;14.30;;;9.63;;
23747;SDS011;12054;53.662;10.126;2022-09-09T06:30:40;14.43;;;9.02;;
23747;SDS011;12054;53.662;10.126;2022-09-09T06:33:06;12.13;;;9.15;;
23747;SDS011;12054;53.662;10.126;2022-09-09T06:35:32;14.07;;;9.15;;
23747;SDS011;12054;53.662;10.126;2022-09-09T06:37:57;14.70;;;8.95;;
23747;SDS011;12054;53.662;10.126;2022-09-09T06:40:23;12.35;;;9.00;;
23747;SDS011;12054;53.662;10.126;2022-09-09T06:42:49;15.25;;;9.02;;
23747;SDS011;12054;53.662;10.126;2022-09-09T06:45:15;10.93;;;8.60;;
23747;SDS011;12054;53.662;10.126;2022-09-09T06:47:41;12.27;;;8.65;;
23747;SDS011;12054;53.662;10.126;2022-09-09T06:50:07;10.85;;;7.47;;
23747;SDS011;12054;53.662;10.126;2022-09-09T06:52:35;11.85;;;8.57;;
23747;SDS011;12054;53.662;10.126;2022-09-09T06:55:00;11.45;;;8.48;;
23747;SDS011;12054;53.662;10.126;2022-09-09T06:57:27;10.60;;;8.02;;
23747;SDS011;12054;53.662;10.126;2022-09-09T06:59:53;8.68;;;7.55;;
23747;SDS011;12054;53.662;10.126;2022-09-09T07:02:18;10.63;;;7.43;;
23747;SDS011;12054;53.662;10.126;2022-09-09T07:04:45;12.40;;;7.82;;
23747;SDS011;12054;53.662;10.126;2022-09-09T07:07:10;9.82;;;7.90;;
23747;SDS011;12054;53.662;10.126;2022-09-09T07:09:40;10.05;;;7.65;;
23747;SDS011;12054;53.662;10.126;2022-09-09T07:12:05;10.27;;;7.68;;
23747;SDS011;12054;53.662;10.126;2022-09-09T07:14:31;10.93;;;8.25;;
23747;SDS011;12054;53.662;10.126;2022-09-09T07:16:58;12.55;;;8.73;;
23747;SDS011;12054;53.662;10.126;2022-09-09T07:19:25;13.25;;;8.80;;
23747;SDS011;12054;53.662;10.126;2022-09-09T07:21:50;11.32;;;7.90;;
23747;SDS011;12054;53.662;10.126;2022-09-09T07:24:16;9.77;;;7.30;;
23747;SDS011;12054;53.662;10.126;2022-09-09T07:26:42;9.00;;;7.30;;
23747;SDS011;12054;53.662;10.126;2022-09-09T07:29:09;9.80;;;6.70;;
23747;SDS011;12054;53.662;10.126;2022-09-09T07:31:35;10.02;;;6.20;;
23747;SDS011;12054;53.662;10.126;2022-09-09T07:34:03;8.30;;;6.43;;
23747;SDS011;12054;53.662;10.126;2022-09-09T07:36:30;9.45;;;6.28;;
23747;SDS011;12054;53.662;10.126;2022-09-09T07:38:59;9.85;;;6.28;;
23747;SDS011;12054;53.662;10.126;2022-09-09T07:41:29;8.70;;;6.40;;
23747;SDS011;12054;53.662;10.126;2022-09-09T07:44:03;9.90;;;7.13;;
23747;SDS011;12054;53.662;10.126;2022-09-09T07:46:31;8.07;;;6.45;;
23747;SDS011;12054;53.662;10.126;2022-09-09T07:48:57;8.07;;;6.43;;
23747;SDS011;12054;53.662;10.126;2022-09-09T07:51:28;8.77;;;6.20;;
23747;SDS011;12054;53.662;10.126;2022-09-09T07:53:56;8.60;;;6.20;;
23747;SDS011;12054;53.662;10.126;2022-09-09T07:56:24;8.45;;;6.22;;
23747;SDS011;12054;53.662;10.126;2022-09-09T07:58:52;9.05;;;6.80;;
23747;SDS011;12054;53.662;10.126;2022-09-09T08:01:23;8.98;;;7.32;;
23747;SDS011;12054;53.662;10.126;2022-09-09T08:06:24;9.38;;;6.65;;
23747;SDS011;12054;53.662;10.126;2022-09-09T08:08:52;9.30;;;6.30;;
23747;SDS011;12054;53.662;10.126;2022-09-09T08:11:20;7.95;;;6.15;;
23747;SDS011;12054;53.662;10.126;2022-09-09T08:13:46;9.32;;;6.40;;
23747;SDS011;12054;53.662;10.126;2022-09-09T08:16:13;6.32;;;5.55;;
23747;SDS011;12054;53.662;10.126;2022-09-09T08:18:40;9.20;;;5.97;;
23747;SDS011;12054;53.662;10.126;2022-09-09T08:23:34;6.47;;;5.53;;
23747;SDS011;12054;53.662;10.126;2022-09-09T08:26:04;7.57;;;5.10;;
23747;SDS011;12054;53.662;10.126;2022-09-09T08:28:30;9.90;;;5.50;;
23747;SDS011;12054;53.662;10.126;2022-09-09T08:30:56;6.97;;;5.10;;
23747;SDS011;12054;53.662;10.126;2022-09-09T08:33:30;6.95;;;5.35;;
23747;SDS011;12054;53.662;10.126;2022-09-09T08:35:56;6.53;;;5.07;;
23747;SDS011;12054;53.662;10.126;2022-09-09T08:38:21;7.80;;;4.70;;
23747;SDS011;12054;53.662;10.126;2022-09-09T08:40:47;7.22;;;5.10;;
23747;SDS011;12054;53.662;10.126;2022-09-09T08:43:14;8.85;;;5.45;;
23747;SDS011;12054;53.662;10.126;2022-09-09T08:45:49;5.55;;;5.00;;
23747;SDS011;12054;53.662;10.126;2022-09-09T08:49:11;8.55;;;5.03;;
23747;SDS011;12054;53.662;10.126;2022-09-09T08:51:30;8.52;;;4.75;;
23747;SDS011;12054;53.662;10.126;2022-09-09T08:53:58;5.88;;;4.55;;
23747;SDS011;12054;53.662;10.126;2022-09-09T08:56:26;8.13;;;4.22;;
23747;SDS011;12054;53.662;10.126;2022-09-09T08:58:56;7.25;;;4.18;;
23747;SDS011;12054;53.662;10.126;2022-09-09T09:09:50;6.68;;;4.03;;
23747;SDS011;12054;53.662;10.126;2022-09-09T09:12:20;6.65;;;4.15;;
23747;SDS011;12054;53.662;10.126;2022-09-09T09:14:48;5.72;;;4.30;;
23747;SDS011;12054;53.662;10.126;2022-09-09T09:17:16;6.47;;;3.78;;
23747;SDS011;12054;53.662;10.126;2022-09-09T09:19:46;5.30;;;4.20;;
23747;SDS011;12054;53.662;10.126;2022-09-09T09:30:28;5.20;;;3.47;;
23747;SDS011;12054;53.662;10.126;2022-09-09T09:32:58;5.63;;;3.60;;
23747;SDS011;12054;53.662;10.126;2022-09-09T09:35:27;5.72;;;4.32;;
23747;SDS011;12054;53.662;10.126;2022-09-09T09:37:53;5.30;;;4.00;;
23747;SDS011;12054;53.662;10.126;2022-09-09T09:40:20;4.07;;;3.67;;
23747;SDS011;12054;53.662;10.126;2022-09-09T09:42:57;5.40;;;3.63;;
23747;SDS011;12054;53.662;10.126;2022-09-09T09:48:11;4.03;;;3.63;;
23747;SDS011;12054;53.662;10.126;2022-09-09T09:50:55;4.38;;;3.63;;
23747;SDS011;12054;53.662;10.126;2022-09-09T09:53:29;6.68;;;3.13;;
23747;SDS011;12054;53.662;10.126;2022-09-09T09:55:59;3.90;;;2.83;;
23747;SDS011;12054;53.662;10.126;2022-09-09T09:58:29;5.30;;;2.80;;
23747;SDS011;12054;53.662;10.126;2022-09-09T10:00:58;3.33;;;3.00;;
23747;SDS011;12054;53.662;10.126;2022-09-09T10:05:55;3.40;;;2.97;;
23747;SDS011;12054;53.662;10.126;2022-09-09T10:08:21;3.97;;;3.00;;
23747;SDS011;12054;53.662;10.126;2022-09-09T10:14:03;5.15;;;2.90;;
23747;SDS011;12054;53.662;10.126;2022-09-09T10:19:03;3.05;;;2.40;;
23747;SDS011;12054;53.662;10.126;2022-09-09T10:21:38;5.05;;;2.28;;
23747;SDS011;12054;53.662;10.126;2022-09-09T10:24:33;5.40;;;2.22;;
23747;SDS011;12054;53.662;10.126;2022-09-09T10:29:47;3.88;;;1.80;;
23747;SDS011;12054;53.662;10.126;2022-09-09T10:35:14;6.53;;;2.03;;
23747;SDS011;12054;53.662;10.126;2022-09-09T10:40:34;3.00;;;1.88;;
23747;SDS011;12054;53.662;10.126;2022-09-09T10:45:58;2.78;;;1.60;;
23747;SDS011;12054;53.662;10.126;2022-09-09T10:48:38;2.10;;;1.60;;
23747;SDS011;12054;53.662;10.126;2022-09-09T10:51:33;2.97;;;1.30;;
23747;SDS011;12054;53.662;10.126;2022-09-09T10:57:27;3.25;;;1.27;;
23747;SDS011;12054;53.662;10.126;2022-09-09T11:00:47;2.03;;;1.40;;
23747;SDS011;12054;53.662;10.126;2022-09-09T11:03:03;2.17;;;1.33;;
23747;SDS011;12054;53.662;10.126;2022-09-09T11:05:42;3.63;;;1.73;;
23747;SDS011;12054;53.662;10.126;2022-09-09T11:08:21;2.92;;;1.40;;
23747;SDS011;12054;53.662;10.126;2022-09-09T11:16:22;4.82;;;1.40;;
23747;SDS011;12054;53.662;10.126;2022-09-09T11:21:47;2.28;;;1.00;;
23747;SDS011;12054;53.662;10.126;2022-09-09T11:24:28;2.45;;;1.25;;
23747;SDS011;12054;53.662;10.126;2022-09-09T11:32:44;3.10;;;1.50;;
23747;SDS011;12054;53.662;10.126;2022-09-09T11:35:32;4.40;;;1.38;;
23747;SDS011;12054;53.662;10.126;2022-09-09T11:41:10;6.15;;;1.10;;
23747;SDS011;12054;53.662;10.126;2022-09-09T11:46:08;1.40;;;1.15;;
23747;SDS011;12054;53.662;10.126;2022-09-09T11:48:36;3.67;;;1.30;;
23747;SDS011;12054;53.662;10.126;2022-09-09T11:51:10;2.97;;;1.52;;
23747;SDS011;12054;53.662;10.126;2022-09-09T11:56:30;3.25;;;1.30;;
23747;SDS011;12054;53.662;10.126;2022-09-09T12:01:59;1.35;;;0.98;;
23747;SDS011;12054;53.662;10.126;2022-09-09T12:09:50;1.30;;;1.15;;
23747;SDS011;12054;53.662;10.126;2022-09-09T12:12:23;1.92;;;1.33;;
23747;SDS011;12054;53.662;10.126;2022-09-09T12:15:03;5.13;;;1.63;;
23747;SDS011;12054;53.662;10.126;2022-09-09T12:17:57;2.28;;;1.30;;
23747;SDS011;12054;53.662;10.126;2022-09-09T12:23:38;2.78;;;1.30;;
23747;SDS011;12054;53.662;10.126;2022-09-09T12:28:58;2.75;;;1.75;;
23747;SDS011;12054;53.662;10.126;2022-09-09T12:31:31;2.17;;;1.40;;
23747;SDS011;12054;53.662;10.126;2022-09-09T12:34:09;2.67;;;1.45;;
23747;SDS011;12054;53.662;10.126;2022-09-09T12:36:58;2.88;;;1.40;;
23747;SDS011;12054;53.662;10.126;2022-09-09T12:39:34;4.57;;;1.30;;
23747;SDS011;12054;53.662;10.126;2022-09-09T12:42:15;2.95;;;1.42;;
23747;SDS011;12054;53.662;10.126;2022-09-09T12:45:03;2.53;;;1.50;;
23747;SDS011;12054;53.662;10.126;2022-09-09T12:47:43;3.45;;;1.60;;
23747;SDS011;12054;53.662;10.126;2022-09-09T12:50:16;2.00;;;1.33;;
23747;SDS011;12054;53.662;10.126;2022-09-09T12:52:46;3.88;;;1.60;;
23747;SDS011;12054;53.662;10.126;2022-09-09T12:55:19;5.20;;;2.00;;
23747;SDS011;12054;53.662;10.126;2022-09-09T12:57:48;2.58;;;1.65;;
23747;SDS011;12054;53.662;10.126;2022-09-09T13:00:19;3.17;;;2.00;;
23747;SDS011;12054;53.662;10.126;2022-09-09T13:02:52;2.75;;;1.90;;
23747;SDS011;12054;53.662;10.126;2022-09-09T13:05:41;3.33;;;2.00;;
23747;SDS011;12054;53.662;10.126;2022-09-09T13:08:08;3.10;;;2.30;;
23747;SDS011;12054;53.662;10.126;2022-09-09T13:10:36;4.03;;;2.17;;
23747;SDS011;12054;53.662;10.126;2022-09-09T13:13:14;2.80;;;2.05;;
23747;SDS011;12054;53.662;10.126;2022-09-09T13:15:50;3.45;;;2.50;;
23747;SDS011;12054;53.662;10.126;2022-09-09T13:18:19;4.78;;;2.33;;
23747;SDS011;12054;53.662;10.126;2022-09-09T13:20:48;4.38;;;2.28;;
23747;SDS011;12054;53.662;10.126;2022-09-09T13:23:16;3.78;;;2.10;;
23747;SDS011;12054;53.662;10.126;2022-09-09T13:25:55;3.63;;;2.60;;
23747;SDS011;12054;53.662;10.126;2022-09-09T13:28:24;3.28;;;2.38;;
23747;SDS011;12054;53.662;10.126;2022-09-09T13:30:58;3.17;;;2.08;;
23747;SDS011;12054;53.662;10.126;2022-09-09T13:33:32;2.85;;;2.17;;
23747;SDS011;12054;53.662;10.126;2022-09-09T13:36:11;3.63;;;2.03;;
23747;SDS011;12054;53.662;10.126;2022-09-09T13:41:21;2.22;;;2.00;;
23747;SDS011;12054;53.662;10.126;2022-09-09T13:43:49;3.00;;;2.10;;
23747;SDS011;12054;53.662;10.126;2022-09-09T13:49:22;4.65;;;2.08;;
23747;SDS011;12054;53.662;10.126;2022-09-09T13:51:50;2.65;;;2.10;;
23747;SDS011;12054;53.662;10.126;2022-09-09T13:54:21;3.50;;;2.13;;
23747;SDS011;12054;53.662;10.126;2022-09-09T13:56:47;2.55;;;2.05;;
23747;SDS011;12054;53.662;10.126;2022-09-09T13:59:16;3.28;;;1.90;;
23747;SDS011;12054;53.662;10.126;2022-09-09T14:01:44;4.30;;;2.22;;
23747;SDS011;12054;53.662;10.126;2022-09-09T14:04:11;5.80;;;2.70;;
23747;SDS011;12054;53.662;10.126;2022-09-09T14:06:37;2.80;;;2.30;;
23747;SDS011;12054;53.662;10.126;2022-09-09T14:09:08;3.83;;;2.50;;
23747;SDS011;12054;53.662;10.126;2022-09-09T14:11:37;4.15;;;2.80;;
23747;SDS011;12054;53.662;10.126;2022-09-09T14:14:03;4.70;;;3.03;;
23747;SDS011;12054;53.662;10.126;2022-09-09T14:16:29;3.10;;;2.83;;
23747;SDS011;12054;53.662;10.126;2022-09-09T14:18:55;5.95;;;3.53;;
23747;SDS011;12054;53.662;10.126;2022-09-09T14:21:24;4.68;;;3.13;;
23747;SDS011;12054;53.662;10.126;2022-09-09T14:23:55;6.70;;;2.90;;
23747;SDS011;12054;53.662;10.126;2022-09-09T14:26:42;2.97;;;2.67;;
23747;SDS011;12054;53.662;10.126;2022-09-09T14:29:07;5.55;;;3.30;;
23747;SDS011;12054;53.662;10.126;2022-09-09T14:31:33;4.65;;;2.63;;
23747;SDS011;12054;53.662;10.126;2022-09-09T14:33:59;5.30;;;2.60;;
23747;SDS011;12054;53.662;10.126;2022-09-09T14:36:24;5.57;;;2.90;;
23747;SDS011;12054;53.662;10.126;2022-09-09T14:38:50;3.95;;;2.92;;
23747;SDS011;12054;53.662;10.126;2022-09-09T14:41:17;5.32;;;3.05;;
23747;SDS011;12054;53.662;10.126;2022-09-09T14:43:45;6.55;;;3.10;;
23747;SDS011;12054;53.662;10.126;2022-09-09T14:46:12;4.88;;;3.00;;
23747;SDS011;12054;53.662;10.126;2022-09-09T14:48:39;4.63;;;2.70;;
23747;SDS011;12054;53.662;10.126;2022-09-09T14:51:06;4.72;;;2.72;;
23747;SDS011;12054;53.662;10.126;2022-09-09T14:53:47;6.05;;;2.83;;
23747;SDS011;12054;53.662;10.126;2022-09-09T14:56:17;5.88;;;2.90;;
23747;SDS011;12054;53.662;10.126;2022-09-09T14:58:43;3.72;;;2.40;;
23747;SDS011;12054;53.662;10.126;2022-09-09T15:01:11;4.50;;;3.05;;
23747;SDS011;12054;53.662;10.126;2022-09-09T15:03:40;4.75;;;2.40;;
23747;SDS011;12054;53.662;10.126;2022-09-09T15:06:07;5.03;;;2.20;;
23747;SDS011;12054;53.662;10.126;2022-09-09T15:08:35;3.35;;;2.20;;
23747;SDS011;12054;53.662;10.126;2022-09-09T15:11:02;3.63;;;2.33;;
23747;SDS011;12054;53.662;10.126;2022-09-09T15:13:29;3.83;;;2.00;;
23747;SDS011;12054;53.662;10.126;2022-09-09T15:16:14;4.13;;;2.38;;
23747;SDS011;12054;53.662;10.126;2022-09-09T15:18:43;4.10;;;1.98;;
23747;SDS011;12054;53.662;10.126;2022-09-09T15:21:14;3.95;;;2.20;;
23747;SDS011;12054;53.662;10.126;2022-09-09T15:23:46;4.32;;;2.30;;
23747;SDS011;12054;53.662;10.126;2022-09-09T15:26:12;5.57;;;2.33;;
23747;SDS011;12054;53.662;10.126;2022-09-09T15:28:42;3.97;;;2.35;;
23747;SDS011;12054;53.662;10.126;2022-09-09T15:33:50;2.65;;;2.10;;
23747;SDS011;12054;53.662;10.126;2022-09-09T15:36:25;3.63;;;2.25;;
23747;SDS011;12054;53.662;10.126;2022-09-09T15:38:52;3.50;;;1.75;;
23747;SDS011;12054;53.662;10.126;2022-09-09T15:41:24;2.92;;;1.83;;
23747;SDS011;12054;53.662;10.126;2022-09-09T15:43:51;2.28;;;1.65;;
23747;SDS011;12054;53.662;10.126;2022-09-09T15:46:27;1.98;;;1.58;;
23747;SDS011;12054;53.662;10.126;2022-09-09T15:48:55;4.22;;;1.77;;
23747;SDS011;12054;53.662;10.126;2022-09-09T15:51:23;2.05;;;1.70;;
23747;SDS011;12054;53.662;10.126;2022-09-09T15:53:59;2.40;;;1.48;;
23747;SDS011;12054;53.662;10.126;2022-09-09T15:56:25;3.78;;;1.40;;
23747;SDS011;12054;53.662;10.126;2022-09-09T15:58:53;3.72;;;1.55;;
23747;SDS011;12054;53.662;10.126;2022-09-09T16:01:20;3.95;;;1.70;;
23747;SDS011;12054;53.662;10.126;2022-09-09T16:03:46;2.58;;;1.55;;
23747;SDS011;12054;53.662;10.126;2022-09-09T16:06:13;2.92;;;1.55;;
23747;SDS011;12054;53.662;10.126;2022-09-09T16:08:40;4.22;;;1.67;;
23747;SDS011;12054;53.662;10.126;2022-09-09T16:11:15;2.40;;;1.58;;
23747;SDS011;12054;53.662;10.126;2022-09-09T16:13:42;3.95;;;2.00;;
23747;SDS011;12054;53.662;10.126;2022-09-09T16:16:12;2.60;;;1.80;;
23747;SDS011;12054;53.662;10.126;2022-09-09T16:18:40;3.60;;;2.08;;
23747;SDS011;12054;53.662;10.126;2022-09-09T16:21:08;5.75;;;2.55;;
23747;SDS011;12054;53.662;10.126;2022-09-09T16:23:38;2.95;;;2.60;;
23747;SDS011;12054;53.662;10.126;2022-09-09T16:26:04;3.00;;;2.38;;
23747;SDS011;12054;53.662;10.126;2022-09-09T16:28:30;4.28;;;2.60;;
23747;SDS011;12054;53.662;10.126;2022-09-09T16:30:56;6.00;;;3.03;;
23747;SDS011;12054;53.662;10.126;2022-09-09T16:33:22;4.25;;;2.40;;
23747;SDS011;12054;53.662;10.126;2022-09-09T16:35:48;4.35;;;2.40;;
23747;SDS011;12054;53.662;10.126;2022-09-09T16:38:14;4.55;;;2.40;;
23747;SDS011;12054;53.662;10.126;2022-09-09T16:40:40;2.90;;;2.00;;
23747;SDS011;12054;53.662;10.126;2022-09-09T16:43:06;2.95;;;1.90;;
23747;SDS011;12054;53.662;10.126;2022-09-09T16:45:32;6.53;;;2.30;;
23747;SDS011;12054;53.662;10.126;2022-09-09T16:47:58;3.42;;;2.00;;
23747;SDS011;12054;53.662;10.126;2022-09-09T16:50:25;2.70;;;1.90;;
23747;SDS011;12054;53.662;10.126;2022-09-09T16:52:51;2.30;;;2.10;;
23747;SDS011;12054;53.662;10.126;2022-09-09T16:55:17;4.32;;;2.30;;
23747;SDS011;12054;53.662;10.126;2022-09-09T16:57:45;3.22;;;1.90;;
23747;SDS011;12054;53.662;10.126;2022-09-09T17:00:13;4.63;;;1.77;;
23747;SDS011;12054;53.662;10.126;2022-09-09T17:02:40;4.03;;;1.90;;
23747;SDS011;12054;53.662;10.126;2022-09-09T17:05:05;4.60;;;2.13;;
23747;SDS011;12054;53.662;10.126;2022-09-09T17:07:31;4.10;;;1.80;;
23747;SDS011;12054;53.662;10.126;2022-09-09T17:09:57;3.90;;;1.83;;
23747;SDS011;12054;53.662;10.126;2022-09-09T17:12:22;3.75;;;2.20;;
23747;SDS011;12054;53.662;10.126;2022-09-09T17:14:49;3.05;;;1.80;;
23747;SDS011;12054;53.662;10.126;2022-09-09T17:17:14;3.03;;;1.92;;
23747;SDS011;12054;53.662;10.126;2022-09-09T17:19:40;3.30;;;2.05;;